sensor_id;sensor_type;location;lat;lon;timestamp;pressure;altitude;pressure_sealevel;temperature
64296;BMP280;51082;38.236;15.432;2023-05-14T00:00:52;100820.59;;;23.01
64296;BMP280;51082;38.236;15.432;2023-05-14T00:01:54;100816.88;;;22.97
64296;BMP280;51082;38.236;15.432;2023-05-14T00:02:56;100815.00;;;22.98
64296;BMP280;51082;38.236;15.432;2023-05-14T00:03:57;100819.00;;;23.00
64296;BMP280;51082;38.236;15.432;2023-05-14T00:04:59;100825.34;;;23.04
64296;BMP280;51082;38.236;15.432;2023-05-14T00:06:01;100803.53;;;23.07
64296;BMP280;51082;38.236;15.432;2023-05-14T00:07:03;100807.81;;;23.08
64296;BMP280;51082;38.236;15.432;2023-05-14T00:08:05;100794.31;;;23.00
64296;BMP280;51082;38.236;15.432;2023-05-14T00:09:07;100797.72;;;22.51
64296;BMP280;51082;38.236;15.432;2023-05-14T00:10:09;100773.50;;;22.58
64296;BMP280;51082;38.236;15.432;2023-05-14T00:11:11;100778.63;;;22.44
64296;BMP280;51082;38.236;15.432;2023-05-14T00:12:15;100781.81;;;22.46
64296;BMP280;51082;38.236;15.432;2023-05-14T00:13:16;100790.34;;;22.28
64296;BMP280;51082;38.236;15.432;2023-05-14T00:14:18;100812.34;;;22.33
64296;BMP280;51082;38.236;15.432;2023-05-14T00:15:19;100840.44;;;22.39
64296;BMP280;51082;38.236;15.432;2023-05-14T00:16:22;100844.97;;;22.34
64296;BMP280;51082;38.236;15.432;2023-05-14T00:17:23;100845.00;;;22.29
64296;BMP280;51082;38.236;15.432;2023-05-14T00:18:26;100856.66;;;22.33
64296;BMP280;51082;38.236;15.432;2023-05-14T00:19:27;100862.47;;;22.40
64296;BMP280;51082;38.236;15.432;2023-05-14T00:20:29;100860.59;;;22.46
64296;BMP280;51082;38.236;15.432;2023-05-14T00:21:30;100851.00;;;22.50
64296;BMP280;51082;38.236;15.432;2023-05-14T00:22:33;100843.63;;;22.52
64296;BMP280;51082;38.236;15.432;2023-05-14T00:23:34;100839.09;;;22.52
64296;BMP280;51082;38.236;15.432;2023-05-14T00:24:37;100845.72;;;22.45
64296;BMP280;51082;38.236;15.432;2023-05-14T00:25:38;100847.59;;;22.44
64296;BMP280;51082;38.236;15.432;2023-05-14T00:26:40;100867.22;;;22.48
64296;BMP280;51082;38.236;15.432;2023-05-14T00:27:43;100864.06;;;22.46
64296;BMP280;51082;38.236;15.432;2023-05-14T00:28:46;100856.88;;;22.52
64296;BMP280;51082;38.236;15.432;2023-05-14T00:29:47;100860.59;;;22.56
64296;BMP280;51082;38.236;15.432;2023-05-14T00:30:49;100867.72;;;22.60
64296;BMP280;51082;38.236;15.432;2023-05-14T00:31:51;100865.59;;;22.62
64296;BMP280;51082;38.236;15.432;2023-05-14T00:32:53;100848.59;;;22.63
64296;BMP280;51082;38.236;15.432;2023-05-14T00:33:55;100849.94;;;22.66
64296;BMP280;51082;38.236;15.432;2023-05-14T00:34:57;100840.09;;;22.66
64296;BMP280;51082;38.236;15.432;2023-05-14T00:35:58;100832.66;;;22.68
64296;BMP280;51082;38.236;15.432;2023-05-14T00:37:01;100818.38;;;22.49
64296;BMP280;51082;38.236;15.432;2023-05-14T00:38:03;100816.81;;;22.43
64296;BMP280;51082;38.236;15.432;2023-05-14T00:39:05;100819.19;;;22.45
64296;BMP280;51082;38.236;15.432;2023-05-14T00:40:07;100828.75;;;22.51
64296;BMP280;51082;38.236;15.432;2023-05-14T00:41:15;100822.13;;;22.48
64296;BMP280;51082;38.236;15.432;2023-05-14T00:42:16;100818.38;;;22.49
64296;BMP280;51082;38.236;15.432;2023-05-14T00:43:20;100815.25;;;22.37
64296;BMP280;51082;38.236;15.432;2023-05-14T00:44:22;100839.94;;;22.22
64296;BMP280;51082;38.236;15.432;2023-05-14T00:45:25;100837.53;;;22.26
64296;BMP280;51082;38.236;15.432;2023-05-14T00:46:26;100833.81;;;22.22
64296;BMP280;51082;38.236;15.432;2023-05-14T00:47:28;100828.53;;;22.22
64296;BMP280;51082;38.236;15.432;2023-05-14T00:48:30;100815.03;;;22.23
64296;BMP280;51082;38.236;15.432;2023-05-14T00:49:32;100820.06;;;22.20
64296;BMP280;51082;38.236;15.432;2023-05-14T00:50:34;100822.41;;;22.26
64296;BMP280;51082;38.236;15.432;2023-05-14T00:51:37;100820.06;;;22.15
64296;BMP280;51082;38.236;15.432;2023-05-14T00:52:38;100812.13;;;22.15
64296;BMP280;51082;38.236;15.432;2023-05-14T00:53:41;100827.47;;;22.23
64296;BMP280;51082;38.236;15.432;2023-05-14T00:54:43;100859.28;;;22.23
64296;BMP280;51082;38.236;15.432;2023-05-14T00:55:46;100867.53;;;22.21
64296;BMP280;51082;38.236;15.432;2023-05-14T00:56:48;100871.25;;;22.15
64296;BMP280;51082;38.236;15.432;2023-05-14T00:57:51;100861.44;;;22.21
64296;BMP280;51082;38.236;15.432;2023-05-14T00:58:55;100877.63;;;22.19
64296;BMP280;51082;38.236;15.432;2023-05-14T00:59:57;100867.81;;;22.20
64296;BMP280;51082;38.236;15.432;2023-05-14T01:00:58;100847.09;;;22.22
64296;BMP280;51082;38.236;15.432;2023-05-14T01:02:01;100843.94;;;22.20
64296;BMP280;51082;38.236;15.432;2023-05-14T01:03:02;100827.47;;;22.23
64296;BMP280;51082;38.236;15.432;2023-05-14T01:04:05;100821.34;;;22.27
64296;BMP280;51082;38.236;15.432;2023-05-14T01:05:07;100829.31;;;22.22
64296;BMP280;51082;38.236;15.432;2023-05-14T01:06:11;100838.06;;;22.23
64296;BMP280;51082;38.236;15.432;2023-05-14T01:07:16;100828.03;;;22.25
64296;BMP280;51082;38.236;15.432;2023-05-14T01:08:24;100819.53;;;22.28
64296;BMP280;51082;38.236;15.432;2023-05-14T01:09:27;100823.78;;;22.29
64296;BMP280;51082;38.236;15.432;2023-05-14T01:10:31;100831.44;;;22.25
64296;BMP280;51082;38.236;15.432;2023-05-14T01:11:37;100820.06;;;22.20
64296;BMP280;51082;38.236;15.432;2023-05-14T01:12:42;100818.47;;;22.19
64296;BMP280;51082;38.236;15.432;2023-05-14T01:13:48;100816.88;;;22.08
64296;BMP280;51082;38.236;15.432;2023-05-14T01:14:56;100811.31;;;22.04
64296;BMP280;51082;38.236;15.432;2023-05-14T01:15:59;100817.41;;;21.99
64296;BMP280;51082;38.236;15.432;2023-05-14T01:17:03;100821.94;;;21.94
64296;BMP280;51082;38.236;15.432;2023-05-14T01:18:06;100829.09;;;21.88
64296;BMP280;51082;38.236;15.432;2023-05-14T01:19:12;100823.81;;;21.93
64296;BMP280;51082;38.236;15.432;2023-05-14T01:20:17;100808.69;;;21.89
64296;BMP280;51082;38.236;15.432;2023-05-14T01:22:42;100816.91;;;21.97
64296;BMP280;51082;38.236;15.432;2023-05-14T01:23:44;100813.97;;;21.99
64296;BMP280;51082;38.236;15.432;2023-05-14T01:24:45;100808.97;;;21.92
64296;BMP280;51082;38.236;15.432;2023-05-14T01:25:48;100794.66;;;21.93
64296;BMP280;51082;38.236;15.432;2023-05-14T01:26:49;100800.19;;;21.87
64296;BMP280;51082;38.236;15.432;2023-05-14T01:27:52;100810.56;;;21.93
64296;BMP280;51082;38.236;15.432;2023-05-14T01:28:55;100806.81;;;21.94
64296;BMP280;51082;38.236;15.432;2023-05-14T01:30:02;100814.50;;;21.96
64296;BMP280;51082;38.236;15.432;2023-05-14T01:31:04;100813.19;;;21.98
64296;BMP280;51082;38.236;15.432;2023-05-14T01:32:08;100803.41;;;21.89
64296;BMP280;51082;38.236;15.432;2023-05-14T01:33:11;100811.06;;;21.90
64296;BMP280;51082;38.236;15.432;2023-05-14T01:34:14;100816.34;;;21.95
64296;BMP280;51082;38.236;15.432;2023-05-14T01:35:16;100817.16;;;21.96
64296;BMP280;51082;38.236;15.432;2023-05-14T01:36:18;100830.16;;;21.92
64296;BMP280;51082;38.236;15.432;2023-05-14T01:37:20;100836.50;;;21.86
64296;BMP280;51082;38.236;15.432;2023-05-14T01:38:25;100848.44;;;21.84
64296;BMP280;51082;38.236;15.432;2023-05-14T01:39:27;100849.53;;;21.88
64296;BMP280;51082;38.236;15.432;2023-05-14T01:40:31;100846.59;;;21.79
64296;BMP280;51082;38.236;15.432;2023-05-14T01:41:33;100848.19;;;21.70
64296;BMP280;51082;38.236;15.432;2023-05-14T01:42:36;100849.22;;;21.64
64296;BMP280;51082;38.236;15.432;2023-05-14T01:43:38;100833.84;;;21.71
64296;BMP280;51082;38.236;15.432;2023-05-14T01:44:40;100827.22;;;21.73
64296;BMP280;51082;38.236;15.432;2023-05-14T01:45:43;100815.31;;;21.76
64296;BMP280;51082;38.236;15.432;2023-05-14T01:46:44;100810.28;;;21.80
64296;BMP280;51082;38.236;15.432;2023-05-14T01:47:46;100812.13;;;21.74
64296;BMP280;51082;38.236;15.432;2023-05-14T01:48:48;100821.69;;;21.80
64296;BMP280;51082;38.236;15.432;2023-05-14T01:49:50;100816.88;;;21.82
64296;BMP280;51082;38.236;15.432;2023-05-14T01:50:51;100807.38;;;21.81
64296;BMP280;51082;38.236;15.432;2023-05-14T01:51:53;100811.06;;;21.80
64296;BMP280;51082;38.236;15.432;2023-05-14T01:52:55;100810.00;;;21.76
64296;BMP280;51082;38.236;15.432;2023-05-14T01:53:58;100810.00;;;21.76
64296;BMP280;51082;38.236;15.432;2023-05-14T01:55:00;100814.78;;;21.79
64296;BMP280;51082;38.236;15.432;2023-05-14T01:56:03;100812.13;;;21.74
64296;BMP280;51082;38.236;15.432;2023-05-14T01:57:05;100809.75;;;21.72
64296;BMP280;51082;38.236;15.432;2023-05-14T01:58:07;100806.84;;;21.79
64296;BMP280;51082;38.236;15.432;2023-05-14T01:59:08;100806.84;;;21.79
64296;BMP280;51082;38.236;15.432;2023-05-14T02:00:11;100799.13;;;21.83
64296;BMP280;51082;38.236;15.432;2023-05-14T02:01:12;100800.47;;;21.80
64296;BMP280;51082;38.236;15.432;2023-05-14T02:02:14;100805.25;;;21.83
64296;BMP280;51082;38.236;15.432;2023-05-14T02:03:16;100805.25;;;21.83
64296;BMP280;51082;38.236;15.432;2023-05-14T02:04:18;100799.69;;;21.85
64296;BMP280;51082;38.236;15.432;2023-05-14T02:05:20;100799.94;;;21.83
64296;BMP280;51082;38.236;15.432;2023-05-14T02:06:23;100806.03;;;21.84
64296;BMP280;51082;38.236;15.432;2023-05-14T02:07:24;100800.75;;;21.84
64296;BMP280;51082;38.236;15.432;2023-05-14T02:08:26;100814.53;;;21.86
64296;BMP280;51082;38.236;15.432;2023-05-14T02:09:29;100798.63;;;21.86
64296;BMP280;51082;38.236;15.432;2023-05-14T02:10:31;100804.19;;;21.84
64296;BMP280;51082;38.236;15.432;2023-05-14T02:11:33;100798.88;;;21.79
64296;BMP280;51082;38.236;15.432;2023-05-14T02:12:35;100798.34;;;21.77
64296;BMP280;51082;38.236;15.432;2023-05-14T02:13:36;100793.59;;;21.79
64296;BMP280;51082;38.236;15.432;2023-05-14T02:14:39;100796.75;;;21.81
64296;BMP280;51082;38.236;15.432;2023-05-14T02:15:40;100787.50;;;21.79
64296;BMP280;51082;38.236;15.432;2023-05-14T02:16:42;100799.69;;;21.80
64296;BMP280;51082;38.236;15.432;2023-05-14T02:17:43;100796.22;;;21.79
64296;BMP280;51082;38.236;15.432;2023-05-14T02:18:46;100797.03;;;21.80
64296;BMP280;51082;38.236;15.432;2023-05-14T02:19:47;100806.84;;;21.84
64296;BMP280;51082;38.236;15.432;2023-05-14T02:20:50;100805.25;;;21.83
64296;BMP280;51082;38.236;15.432;2023-05-14T02:21:51;100805.78;;;21.80
64296;BMP280;51082;38.236;15.432;2023-05-14T02:22:53;100817.41;;;21.69
64296;BMP280;51082;38.236;15.432;2023-05-14T02:23:55;100808.94;;;21.67
64296;BMP280;51082;38.236;15.432;2023-05-14T02:24:59;100805.00;;;21.69
64296;BMP280;51082;38.236;15.432;2023-05-14T02:26:01;100808.66;;;21.63
64296;BMP280;51082;38.236;15.432;2023-05-14T02:27:03;100807.38;;;21.61
64296;BMP280;51082;38.236;15.432;2023-05-14T02:28:04;100807.38;;;21.61
64296;BMP280;51082;38.236;15.432;2023-05-14T02:29:07;100804.44;;;21.67
64296;BMP280;51082;38.236;15.432;2023-05-14T02:30:09;100800.72;;;21.63
64296;BMP280;51082;38.236;15.432;2023-05-14T02:31:12;100813.97;;;21.58
64296;BMP280;51082;38.236;15.432;2023-05-14T02:32:14;100812.13;;;21.64
64296;BMP280;51082;38.236;15.432;2023-05-14T02:33:16;100816.88;;;21.67
64296;BMP280;51082;38.236;15.432;2023-05-14T02:34:17;100815.81;;;21.63
64296;BMP280;51082;38.236;15.432;2023-05-14T02:35:20;100809.72;;;21.62
64296;BMP280;51082;38.236;15.432;2023-05-14T02:36:21;100816.34;;;21.60
64296;BMP280;51082;38.236;15.432;2023-05-14T02:37:24;100809.47;;;21.59
64296;BMP280;51082;38.236;15.432;2023-05-14T02:38:25;100809.19;;;21.55
64296;BMP280;51082;38.236;15.432;2023-05-14T02:39:27;100816.09;;;21.56
64296;BMP280;51082;38.236;15.432;2023-05-14T02:40:30;100816.34;;;21.60
64296;BMP280;51082;38.236;15.432;2023-05-14T02:41:33;100815.03;;;21.62
64296;BMP280;51082;38.236;15.432;2023-05-14T02:42:34;100808.66;;;21.63
64296;BMP280;51082;38.236;15.432;2023-05-14T02:43:36;100816.41;;;21.70
64296;BMP280;51082;38.236;15.432;2023-05-14T02:44:37;100807.63;;;21.75
64296;BMP280;51082;38.236;15.432;2023-05-14T02:45:42;100803.66;;;21.72
64296;BMP280;51082;38.236;15.432;2023-05-14T02:46:44;100807.88;;;21.68
64296;BMP280;51082;38.236;15.432;2023-05-14T02:47:46;100808.44;;;21.65
64296;BMP280;51082;38.236;15.432;2023-05-14T02:48:47;100808.94;;;21.67
64296;BMP280;51082;38.236;15.432;2023-05-14T02:49:50;100800.72;;;21.68
64296;BMP280;51082;38.236;15.432;2023-05-14T02:50:51;100811.31;;;21.68
64296;BMP280;51082;38.236;15.432;2023-05-14T02:51:53;100814.78;;;21.74
64296;BMP280;51082;38.236;15.432;2023-05-14T02:52:54;100805.25;;;21.73
64296;BMP280;51082;38.236;15.432;2023-05-14T02:53:57;100800.47;;;21.80
64296;BMP280;51082;38.236;15.432;2023-05-14T02:54:58;100795.16;;;21.75
64296;BMP280;51082;38.236;15.432;2023-05-14T02:56:02;100793.59;;;21.79
64296;BMP280;51082;38.236;15.432;2023-05-14T02:57:04;100794.09;;;21.66
64296;BMP280;51082;38.236;15.432;2023-05-14T02:58:06;100802.06;;;21.61
64296;BMP280;51082;38.236;15.432;2023-05-14T02:59:07;100794.09;;;21.66
64296;BMP280;51082;38.236;15.432;2023-05-14T03:00:10;100803.13;;;21.75
64296;BMP280;51082;38.236;15.432;2023-05-14T03:01:12;100804.72;;;21.76
64296;BMP280;51082;38.236;15.432;2023-05-14T03:02:14;100802.06;;;21.81
64296;BMP280;51082;38.236;15.432;2023-05-14T03:03:15;100803.63;;;21.82
64296;BMP280;51082;38.236;15.432;2023-05-14T03:04:17;100803.91;;;21.81
64296;BMP280;51082;38.236;15.432;2023-05-14T03:05:19;100790.41;;;21.77
64296;BMP280;51082;38.236;15.432;2023-05-14T03:06:21;100787.75;;;21.72
64296;BMP280;51082;38.236;15.432;2023-05-14T03:07:22;100782.44;;;21.67
64296;BMP280;51082;38.236;15.432;2023-05-14T03:08:25;100778.50;;;21.69
64296;BMP280;51082;38.236;15.432;2023-05-14T03:09:26;100783.50;;;21.71
64296;BMP280;51082;38.236;15.432;2023-05-14T03:10:28;100773.44;;;21.68
64296;BMP280;51082;38.236;15.432;2023-05-14T03:11:31;100798.88;;;21.69
64296;BMP280;51082;38.236;15.432;2023-05-14T03:12:34;100790.38;;;21.67
64296;BMP280;51082;38.236;15.432;2023-05-14T03:13:35;100800.50;;;21.70
64296;BMP280;51082;38.236;15.432;2023-05-14T03:14:37;100805.25;;;21.73
64296;BMP280;51082;38.236;15.432;2023-05-14T03:15:38;100811.09;;;21.70
64296;BMP280;51082;38.236;15.432;2023-05-14T03:16:41;100808.66;;;21.58
64296;BMP280;51082;38.236;15.432;2023-05-14T03:17:42;100811.03;;;21.60
64296;BMP280;51082;38.236;15.432;2023-05-14T03:18:44;100794.34;;;21.59
64296;BMP280;51082;38.236;15.432;2023-05-14T03:19:45;100791.69;;;21.54
64296;BMP280;51082;38.236;15.432;2023-05-14T03:20:48;100790.41;;;21.57
64296;BMP280;51082;38.236;15.432;2023-05-14T03:21:49;100789.84;;;21.55
64296;BMP280;51082;38.236;15.432;2023-05-14T03:22:51;100786.97;;;21.61
64296;BMP280;51082;38.236;15.432;2023-05-14T03:23:53;100789.09;;;21.69
64296;BMP280;51082;38.236;15.432;2023-05-14T03:24:55;100804.72;;;21.71
64296;BMP280;51082;38.236;15.432;2023-05-14T03:25:56;100793.56;;;21.69
64296;BMP280;51082;38.236;15.432;2023-05-14T03:27:00;100794.63;;;21.63
64296;BMP280;51082;38.236;15.432;2023-05-14T03:28:01;100793.06;;;21.62
64296;BMP280;51082;38.236;15.432;2023-05-14T03:29:04;100781.09;;;21.54
64296;BMP280;51082;38.236;15.432;2023-05-14T03:30:06;100781.91;;;21.55
64296;BMP280;51082;38.236;15.432;2023-05-14T03:31:08;100788.00;;;21.55
64296;BMP280;51082;38.236;15.432;2023-05-14T03:32:09;100801.81;;;21.57
64296;BMP280;51082;38.236;15.432;2023-05-14T03:33:12;100807.38;;;21.61
64296;BMP280;51082;38.236;15.432;2023-05-14T03:34:13;100817.41;;;21.64
64296;BMP280;51082;38.236;15.432;2023-05-14T03:35:16;100815.56;;;21.64
64296;BMP280;51082;38.236;15.432;2023-05-14T03:36:17;100820.06;;;21.64
64296;BMP280;51082;38.236;15.432;2023-05-14T03:37:20;100813.97;;;21.68
64296;BMP280;51082;38.236;15.432;2023-05-14T03:38:21;100809.75;;;21.67
64296;BMP280;51082;38.236;15.432;2023-05-14T03:39:23;100799.94;;;21.63
64296;BMP280;51082;38.236;15.432;2023-05-14T03:40:24;100802.06;;;21.61
64296;BMP280;51082;38.236;15.432;2023-05-14T03:41:27;100794.63;;;21.68
64296;BMP280;51082;38.236;15.432;2023-05-14T03:42:29;100782.97;;;21.69
64296;BMP280;51082;38.236;15.432;2023-05-14T03:43:31;100781.66;;;21.71
64296;BMP280;51082;38.236;15.432;2023-05-14T03:44:33;100785.09;;;21.72
64296;BMP280;51082;38.236;15.432;2023-05-14T03:45:35;100774.22;;;21.63
64296;BMP280;51082;38.236;15.432;2023-05-14T03:46:36;100770.53;;;21.49
64296;BMP280;51082;38.236;15.432;2023-05-14T03:47:39;100769.75;;;21.54
64296;BMP280;51082;38.236;15.432;2023-05-14T03:48:40;100789.88;;;21.50
64296;BMP280;51082;38.236;15.432;2023-05-14T03:49:43;100785.09;;;21.57
64296;BMP280;51082;38.236;15.432;2023-05-14T03:50:44;100782.47;;;21.57
64296;BMP280;51082;38.236;15.432;2023-05-14T03:51:47;100780.34;;;21.54
64296;BMP280;51082;38.236;15.432;2023-05-14T03:52:48;100771.31;;;21.50
64296;BMP280;51082;38.236;15.432;2023-05-14T03:53:50;100780.34;;;21.54
64296;BMP280;51082;38.236;15.432;2023-05-14T03:54:51;100798.34;;;21.57
64296;BMP280;51082;38.236;15.432;2023-05-14T03:55:54;100808.16;;;21.61
64296;BMP280;51082;38.236;15.432;2023-05-14T03:56:56;100809.22;;;21.65
64296;BMP280;51082;38.236;15.432;2023-05-14T03:58:00;100807.34;;;21.66
64296;BMP280;51082;38.236;15.432;2023-05-14T03:59:02;100801.53;;;21.69
64296;BMP280;51082;38.236;15.432;2023-05-14T04:00:04;100801.78;;;21.67
64296;BMP280;51082;38.236;15.432;2023-05-14T04:01:06;100797.84;;;21.65
64296;BMP280;51082;38.236;15.432;2023-05-14T04:02:09;100800.50;;;21.65
64296;BMP280;51082;38.236;15.432;2023-05-14T04:03:10;100790.41;;;21.62
64296;BMP280;51082;38.236;15.432;2023-05-14T04:04:12;100778.22;;;21.66
64296;BMP280;51082;38.236;15.432;2023-05-14T04:05:14;100775.03;;;21.64
64296;BMP280;51082;38.236;15.432;2023-05-14T04:06:16;100769.72;;;21.69
64296;BMP280;51082;38.236;15.432;2023-05-14T04:07:17;100758.88;;;21.70
64296;BMP280;51082;38.236;15.432;2023-05-14T04:08:19;100750.16;;;21.65
64296;BMP280;51082;38.236;15.432;2023-05-14T04:09:20;100745.34;;;21.67
64296;BMP280;51082;38.236;15.432;2023-05-14T04:10:23;100748.00;;;21.67
64296;BMP280;51082;38.236;15.432;2023-05-14T04:11:24;100755.94;;;21.67
64296;BMP280;51082;38.236;15.432;2023-05-14T04:12:26;100769.19;;;21.72
64296;BMP280;51082;38.236;15.432;2023-05-14T04:13:29;100776.06;;;21.78
64296;BMP280;51082;38.236;15.432;2023-05-14T04:14:31;100776.63;;;21.80
64296;BMP280;51082;38.236;15.432;2023-05-14T04:15:32;100785.38;;;21.81
64296;BMP280;51082;38.236;15.432;2023-05-14T04:16:35;100784.03;;;21.83
64296;BMP280;51082;38.236;15.432;2023-05-14T04:17:36;100790.94;;;21.84
64296;BMP280;51082;38.236;15.432;2023-05-14T04:18:39;100791.72;;;21.85
64296;BMP280;51082;38.236;15.432;2023-05-14T04:19:40;100790.13;;;21.84
64296;BMP280;51082;38.236;15.432;2023-05-14T04:20:42;100797.53;;;21.87
64296;BMP280;51082;38.236;15.432;2023-05-14T04:21:43;100801.53;;;21.89
64296;BMP280;51082;38.236;15.432;2023-05-14T04:22:45;100789.34;;;21.88
64296;BMP280;51082;38.236;15.432;2023-05-14T04:23:47;100779.53;;;21.89
64296;BMP280;51082;38.236;15.432;2023-05-14T04:24:50;100791.44;;;21.91
64296;BMP280;51082;38.236;15.432;2023-05-14T04:25:52;100783.50;;;21.86
64296;BMP280;51082;38.236;15.432;2023-05-14T04:26:54;100785.91;;;21.88
64296;BMP280;51082;38.236;15.432;2023-05-14T04:27:55;100796.75;;;21.91
64296;BMP280;51082;38.236;15.432;2023-05-14T04:28:59;100800.72;;;21.94
64296;BMP280;51082;38.236;15.432;2023-05-14T04:30:03;100795.16;;;21.90
64296;BMP280;51082;38.236;15.432;2023-05-14T04:31:06;100794.13;;;21.96
64296;BMP280;51082;38.236;15.432;2023-05-14T04:32:07;100790.69;;;22.01
64296;BMP280;51082;38.236;15.432;2023-05-14T04:33:10;100791.97;;;21.98
64296;BMP280;51082;38.236;15.432;2023-05-14T04:34:11;100788.25;;;21.99
64296;BMP280;51082;38.236;15.432;2023-05-14T04:35:13;100786.13;;;22.06
64296;BMP280;51082;38.236;15.432;2023-05-14T04:36:14;100780.03;;;22.06
64296;BMP280;51082;38.236;15.432;2023-05-14T04:37:17;100772.88;;;22.06
64296;BMP280;51082;38.236;15.432;2023-05-14T04:38:18;100778.72;;;22.09
64296;BMP280;51082;38.236;15.432;2023-05-14T04:39:20;100777.91;;;22.13
64296;BMP280;51082;38.236;15.432;2023-05-14T04:40:22;100775.53;;;22.12
64296;BMP280;51082;38.236;15.432;2023-05-14T04:41:24;100773.38;;;22.14
64296;BMP280;51082;38.236;15.432;2023-05-14T04:42:25;100776.59;;;22.16
64296;BMP280;51082;38.236;15.432;2023-05-14T04:43:28;100782.38;;;22.18
64296;BMP280;51082;38.236;15.432;2023-05-14T04:44:30;100778.44;;;22.15
64296;BMP280;51082;38.236;15.432;2023-05-14T04:45:33;100790.34;;;22.18
64296;BMP280;51082;38.236;15.432;2023-05-14T04:46:34;100796.69;;;22.22
64296;BMP280;51082;38.236;15.432;2023-05-14T04:47:36;100812.63;;;22.22
64296;BMP280;51082;38.236;15.432;2023-05-14T04:48:37;100823.22;;;22.22
64296;BMP280;51082;38.236;15.432;2023-05-14T04:49:40;100826.97;;;22.21
64296;BMP280;51082;38.236;15.432;2023-05-14T04:50:42;100837.56;;;22.21
64296;BMP280;51082;38.236;15.432;2023-05-14T04:51:45;100843.38;;;22.23
64296;BMP280;51082;38.236;15.432;2023-05-14T04:52:46;100856.09;;;22.26
64296;BMP280;51082;38.236;15.432;2023-05-14T04:53:48;100855.84;;;22.27
64296;BMP280;51082;38.236;15.432;2023-05-14T04:54:50;100849.75;;;22.32
64296;BMP280;51082;38.236;15.432;2023-05-14T04:55:52;100844.97;;;22.39
64296;BMP280;51082;38.236;15.432;2023-05-14T04:56:53;100835.69;;;22.36
64296;BMP280;51082;38.236;15.432;2023-05-14T04:57:56;100825.59;;;22.44
64296;BMP280;51082;38.236;15.432;2023-05-14T04:58:57;100822.63;;;22.45
64296;BMP280;51082;38.236;15.432;2023-05-14T05:00:01;100830.63;;;22.50
64296;BMP280;51082;38.236;15.432;2023-05-14T05:01:05;100843.56;;;22.57
64296;BMP280;51082;38.236;15.432;2023-05-14T05:02:07;100841.44;;;22.64
64296;BMP280;51082;38.236;15.432;2023-05-14T05:03:08;100840.63;;;22.63
64296;BMP280;51082;38.236;15.432;2023-05-14T05:04:10;100842.22;;;22.69
64296;BMP280;51082;38.236;15.432;2023-05-14T05:05:11;100850.97;;;22.70
64296;BMP280;51082;38.236;15.432;2023-05-14T05:06:14;100858.16;;;22.64
64296;BMP280;51082;38.236;15.432;2023-05-14T05:07:15;100867.97;;;22.64
64296;BMP280;51082;38.236;15.432;2023-05-14T05:08:17;100867.16;;;22.68
64296;BMP280;51082;38.236;15.432;2023-05-14T05:09:18;100874.06;;;22.69
64296;BMP280;51082;38.236;15.432;2023-05-14T05:10:21;100885.75;;;22.73
64296;BMP280;51082;38.236;15.432;2023-05-14T05:11:22;100887.84;;;22.71
64296;BMP280;51082;38.236;15.432;2023-05-14T05:12:24;100895.28;;;22.74
64296;BMP280;51082;38.236;15.432;2023-05-14T05:13:25;100899.78;;;22.79
64296;BMP280;51082;38.236;15.432;2023-05-14T05:14:28;100909.06;;;22.77
64296;BMP280;51082;38.236;15.432;2023-05-14T05:15:30;100912.28;;;22.79
64296;BMP280;51082;38.236;15.432;2023-05-14T05:16:32;100913.03;;;22.79
64296;BMP280;51082;38.236;15.432;2023-05-14T05:17:34;100901.63;;;22.84
64296;BMP280;51082;38.236;15.432;2023-05-14T05:18:36;100910.13;;;22.86
64296;BMP280;51082;38.236;15.432;2023-05-14T05:19:38;100915.66;;;22.94
64296;BMP280;51082;38.236;15.432;2023-05-14T05:20:40;100929.22;;;22.93
64296;BMP280;51082;38.236;15.432;2023-05-14T05:21:41;100933.47;;;22.94
64296;BMP280;51082;38.236;15.432;2023-05-14T05:22:44;100932.41;;;22.95
64296;BMP280;51082;38.236;15.432;2023-05-14T05:23:45;100935.84;;;23.00
64296;BMP280;51082;38.236;15.432;2023-05-14T05:24:47;100937.69;;;23.05
64296;BMP280;51082;38.236;15.432;2023-05-14T05:25:48;100935.03;;;23.00
64296;BMP280;51082;38.236;15.432;2023-05-14T05:26:51;100942.44;;;22.98
64296;BMP280;51082;38.236;15.432;2023-05-14T05:27:53;100936.34;;;23.02
64296;BMP280;51082;38.236;15.432;2023-05-14T05:28:55;100927.06;;;23.05
64296;BMP280;51082;38.236;15.432;2023-05-14T05:29:56;100930.78;;;23.04
64296;BMP280;51082;38.236;15.432;2023-05-14T05:31:00;100927.84;;;23.05
64296;BMP280;51082;38.236;15.432;2023-05-14T05:32:03;100931.28;;;23.11
64296;BMP280;51082;38.236;15.432;2023-05-14T05:33:04;100912.41;;;23.13
64296;BMP280;51082;38.236;15.432;2023-05-14T05:34:06;100891.97;;;23.13
64296;BMP280;51082;38.236;15.432;2023-05-14T05:35:08;100871.25;;;23.10
64296;BMP280;51082;38.236;15.432;2023-05-14T05:36:11;100857.41;;;23.18
64296;BMP280;51082;38.236;15.432;2023-05-14T05:37:12;100859.78;;;23.20
64296;BMP280;51082;38.236;15.432;2023-05-14T05:38:14;100888.50;;;23.18
64296;BMP280;51082;38.236;15.432;2023-05-14T05:39:17;100919.53;;;23.17
64296;BMP280;51082;38.236;15.432;2023-05-14T05:40:20;100926.72;;;23.17
64296;BMP280;51082;38.236;15.432;2023-05-14T05:41:21;100920.59;;;23.21
64296;BMP280;51082;38.236;15.432;2023-05-14T05:42:23;100904.09;;;23.24
64296;BMP280;51082;38.236;15.432;2023-05-14T05:43:25;100904.09;;;23.29
64296;BMP280;51082;38.236;15.432;2023-05-14T05:44:28;100894.78;;;23.32
64296;BMP280;51082;38.236;15.432;2023-05-14T05:45:29;100891.06;;;23.33
64296;BMP280;51082;38.236;15.432;2023-05-14T05:46:33;100901.94;;;23.36
64296;BMP280;51082;38.236;15.432;2023-05-14T05:47:34;100916.28;;;23.35
64296;BMP280;51082;38.236;15.432;2023-05-14T05:48:37;100926.13;;;23.35
64296;BMP280;51082;38.236;15.432;2023-05-14T05:49:38;100934.88;;;23.35